createdAt,value
2018-06-23T00:01:13.155Z,3.60
2018-06-23T00:03:41.351Z,3.30
2018-06-23T00:06:09.724Z,2.92
2018-06-23T00:08:38.161Z,2.73
2018-06-23T00:11:06.398Z,3.22
2018-06-23T00:13:34.575Z,3.37
2018-06-23T00:16:02.868Z,2.50
2018-06-23T00:18:31.270Z,2.65
2018-06-23T00:20:59.417Z,2.47
2018-06-23T00:23:27.834Z,2.90
2018-06-23T00:26:01.422Z,2.90
2018-06-23T00:28:29.602Z,3.23
2018-06-23T00:30:57.753Z,2.87
2018-06-23T00:33:25.899Z,2.40
2018-06-23T00:35:54.079Z,3.33
2018-06-23T00:38:22.201Z,2.80
2018-06-23T00:40:50.329Z,2.98
2018-06-23T00:43:18.479Z,2.73
2018-06-23T00:45:46.635Z,2.90
2018-06-23T00:48:14.786Z,2.55
2018-06-23T00:50:42.960Z,2.53
2018-06-23T00:53:11.293Z,2.37
2018-06-23T00:55:39.647Z,2.70
2018-06-23T00:58:08.070Z,2.67
2018-06-23T01:00:36.309Z,2.47
2018-06-23T01:03:04.486Z,2.17
2018-06-23T01:05:32.657Z,2.70
2018-06-23T01:08:00.793Z,2.23
2018-06-23T01:10:28.965Z,2.40
2018-06-23T01:12:57.099Z,2.80
2018-06-23T01:15:25.265Z,2.60
2018-06-23T01:17:53.439Z,2.40
2018-06-23T01:20:21.609Z,2.13
2018-06-23T01:22:49.785Z,2.50
2018-06-23T01:25:17.949Z,2.40
2018-06-23T01:27:46.078Z,2.40
2018-06-23T01:30:14.323Z,2.55
2018-06-23T01:32:42.469Z,2.25
2018-06-23T01:35:10.626Z,1.95
2018-06-23T01:37:38.963Z,2.30
2018-06-23T01:40:07.093Z,2.20
2018-06-23T01:42:35.227Z,2.30
2018-06-23T01:45:03.414Z,2.10
2018-06-23T01:47:31.571Z,2.00
2018-06-23T01:49:59.711Z,2.40
2018-06-23T01:52:27.991Z,2.43
2018-06-23T01:54:56.145Z,2.50
2018-06-23T01:57:24.262Z,2.03
2018-06-23T01:59:52.438Z,2.05
2018-06-23T02:02:20.614Z,2.27
2018-06-23T02:04:48.778Z,2.30
2018-06-23T02:07:17.034Z,2.10
2018-06-23T02:09:45.219Z,2.05
2018-06-23T02:12:13.413Z,2.10
2018-06-23T02:15:12.111Z,2.10
2018-06-23T02:17:45.556Z,1.95
2018-06-23T02:20:19.171Z,2.12
2018-06-23T02:22:52.655Z,2.00
2018-06-23T02:25:26.009Z,2.20
2018-06-23T02:27:59.449Z,1.80
2018-06-23T02:32:35.900Z,1.87
2018-06-23T02:35:07.326Z,1.80
2018-06-23T02:37:37.400Z,2.03
2018-06-23T02:40:05.614Z,2.62
2018-06-23T02:42:34.001Z,2.40
2018-06-23T02:45:02.274Z,2.27
2018-06-23T02:47:30.422Z,2.30
2018-06-23T02:50:00.234Z,1.90
2018-06-23T02:52:29.574Z,1.80
2018-06-23T02:54:57.765Z,1.97
2018-06-23T02:57:25.875Z,1.82
2018-06-23T02:59:54.054Z,2.03
2018-06-23T03:02:22.230Z,2.15
2018-06-23T03:04:50.401Z,1.98
2018-06-23T03:07:18.566Z,2.33
2018-06-23T03:09:46.718Z,2.80
2018-06-23T03:12:14.854Z,2.42
2018-06-23T03:14:43.081Z,2.17
2018-06-23T03:17:15.100Z,2.40
2018-06-23T03:19:44.138Z,2.45
2018-06-23T03:22:12.262Z,2.40
2018-06-23T03:24:40.433Z,2.10
2018-06-23T03:27:08.822Z,2.37
2018-06-23T03:29:37.165Z,2.40
2018-06-23T03:32:05.429Z,2.20
2018-06-23T03:34:33.649Z,2.33
2018-06-23T03:37:01.810Z,2.47
2018-06-23T03:39:29.999Z,2.67
2018-06-23T03:41:58.134Z,2.40
2018-06-23T03:44:26.280Z,2.27
2018-06-23T03:46:54.666Z,2.35
2018-06-23T03:49:22.809Z,2.65
2018-06-23T03:51:51.055Z,2.33
2018-06-23T03:54:19.217Z,2.10
2018-06-23T03:56:47.461Z,2.00
2018-06-23T03:59:15.593Z,1.90
2018-06-23T04:01:43.762Z,2.33
2018-06-23T04:04:11.914Z,2.02
2018-06-23T04:06:40.069Z,2.30
2018-06-23T04:09:09.646Z,1.98
2018-06-23T04:11:38.092Z,1.72
2018-06-23T04:14:06.278Z,2.17
2018-06-23T04:16:34.442Z,1.80
2018-06-23T04:19:02.593Z,2.58
2018-06-23T04:21:31.230Z,1.82
2018-06-23T04:23:59.724Z,2.00
2018-06-23T04:26:28.471Z,1.55
2018-06-23T04:28:56.852Z,1.57
2018-06-23T04:31:24.992Z,1.70
2018-06-23T04:33:53.195Z,2.00
2018-06-23T04:36:21.377Z,2.02
2018-06-23T04:38:49.569Z,1.95
2018-06-23T04:41:17.718Z,2.12
2018-06-23T04:43:45.848Z,1.92
2018-06-23T04:46:14.007Z,2.12
2018-06-23T04:48:42.170Z,1.85
2018-06-23T04:51:10.362Z,1.92
2018-06-23T04:53:42.098Z,2.17
2018-06-23T04:56:10.274Z,1.82
2018-06-23T04:58:38.517Z,2.40
2018-06-23T05:01:06.685Z,2.27
2018-06-23T05:03:34.963Z,2.22
2018-06-23T05:06:03.302Z,1.80
2018-06-23T05:08:31.533Z,2.30
2018-06-23T05:10:59.717Z,2.40
2018-06-23T05:13:27.873Z,2.47
2018-06-23T05:15:56.034Z,2.65
2018-06-23T05:18:24.180Z,2.72
2018-06-23T05:20:52.350Z,1.80
2018-06-23T05:23:20.485Z,1.90
2018-06-23T05:25:48.650Z,2.02
2018-06-23T05:28:16.793Z,2.15
2018-06-23T05:30:44.948Z,1.90
2018-06-23T05:33:13.618Z,2.20
2018-06-23T05:35:41.757Z,2.52
2018-06-23T05:38:09.923Z,2.70
2018-06-23T05:40:38.118Z,2.17
2018-06-23T05:43:06.553Z,2.65
2018-06-23T05:45:34.921Z,2.85
2018-06-23T05:48:03.076Z,3.10
2018-06-23T05:50:31.239Z,3.15
2018-06-23T05:52:59.383Z,2.37
2018-06-23T05:55:27.746Z,2.70
2018-06-23T05:57:55.917Z,2.55
2018-06-23T06:00:24.177Z,2.95
2018-06-23T06:02:52.826Z,2.25
2018-06-23T06:05:20.991Z,2.83
2018-06-23T06:07:49.222Z,2.45
2018-06-23T06:10:17.351Z,2.75
2018-06-23T06:12:45.521Z,2.90
2018-06-23T06:15:13.762Z,2.87
2018-06-23T06:17:42.188Z,3.20
2018-06-23T06:20:11.374Z,3.10
2018-06-23T06:22:41.800Z,2.77
2018-06-23T06:25:10.493Z,2.50
2018-06-23T06:27:38.946Z,2.62
2018-06-23T06:30:09.147Z,2.40
2018-06-23T06:32:37.342Z,2.53
2018-06-23T06:35:05.774Z,2.37
2018-06-23T06:37:33.957Z,2.10
2018-06-23T06:40:02.502Z,2.25
2018-06-23T06:42:30.677Z,2.30
2018-06-23T06:44:58.825Z,2.53
2018-06-23T06:47:26.977Z,2.50
2018-06-23T06:49:55.169Z,2.15
2018-06-23T06:52:23.402Z,2.10
2018-06-23T06:54:51.750Z,1.90
2018-06-23T06:57:20.121Z,2.42
2018-06-23T06:59:48.684Z,2.13
2018-06-23T07:02:17.959Z,2.53
2018-06-23T07:04:46.485Z,2.37
2018-06-23T07:07:15.331Z,2.47
2018-06-23T07:09:43.522Z,2.60
2018-06-23T07:12:11.663Z,1.90
2018-06-23T07:14:39.823Z,2.30
2018-06-23T07:17:08.043Z,2.30
2018-06-23T07:19:36.353Z,2.63
2018-06-23T07:22:04.498Z,2.08
2018-06-23T07:24:32.638Z,2.30
2018-06-23T07:27:00.883Z,2.20
2018-06-23T07:29:29.058Z,2.30
2018-06-23T07:32:13.252Z,2.60
2018-06-23T07:34:41.592Z,3.00
2018-06-23T07:37:10.011Z,2.37
2018-06-23T07:39:38.206Z,2.50
2018-06-23T07:42:06.558Z,2.70
2018-06-23T07:44:34.894Z,2.62
2018-06-23T07:47:03.071Z,3.15
2018-06-23T07:49:33.827Z,3.60
2018-06-23T07:52:02.436Z,2.95
2018-06-23T07:54:30.600Z,2.80
2018-06-23T07:56:58.822Z,2.52
2018-06-23T07:59:28.187Z,3.12
2018-06-23T08:01:56.750Z,2.45
2018-06-23T08:04:25.868Z,2.62
2018-06-23T08:06:54.035Z,2.72
2018-06-23T08:09:22.174Z,4.17
2018-06-23T08:11:50.397Z,2.85
2018-06-23T08:14:18.501Z,3.12
2018-06-23T08:16:46.681Z,6.05
2018-06-23T08:19:14.804Z,4.05
2018-06-23T08:21:43.295Z,3.90
2018-06-23T08:24:11.455Z,3.42
2018-06-23T08:26:39.772Z,3.08
2018-06-23T08:29:07.922Z,2.90
2018-06-23T08:31:36.173Z,2.33
2018-06-23T08:34:04.329Z,3.10
2018-06-23T08:36:32.476Z,2.77
2018-06-23T08:39:00.644Z,2.42
2018-06-23T08:41:28.830Z,2.33
2018-06-23T08:43:56.974Z,2.60
2018-06-23T08:46:25.150Z,2.55
2018-06-23T08:48:53.348Z,2.80
2018-06-23T08:51:21.735Z,2.15
2018-06-23T08:53:49.942Z,2.25
2018-06-23T08:56:18.446Z,2.37
2018-06-23T08:58:46.642Z,2.58
2018-06-23T09:01:14.777Z,2.72
2018-06-23T09:03:42.982Z,2.45
2018-06-23T09:06:11.145Z,2.40
2018-06-23T09:08:39.339Z,2.80
2018-06-23T09:11:07.533Z,2.40
2018-06-23T09:13:36.188Z,2.52
2018-06-23T09:16:04.372Z,3.08
2018-06-23T09:18:32.555Z,2.98
2018-06-23T09:21:00.759Z,2.90
2018-06-23T09:23:28.943Z,2.42
2018-06-23T09:25:57.146Z,2.50
2018-06-23T09:28:25.327Z,3.10
2018-06-23T09:30:53.469Z,2.30
2018-06-23T09:33:21.690Z,2.30
2018-06-23T09:35:49.843Z,1.92
2018-06-23T09:38:18.011Z,2.33
2018-06-23T09:40:46.503Z,2.45
2018-06-23T09:43:14.748Z,3.30
2018-06-23T09:45:42.939Z,2.52
2018-06-23T09:48:11.132Z,2.40
2018-06-23T09:50:39.346Z,2.37
2018-06-23T09:53:07.594Z,2.62
2018-06-23T09:55:36.044Z,2.35
2018-06-23T09:58:04.215Z,2.85
2018-06-23T10:00:32.456Z,2.35
2018-06-23T10:03:01.684Z,2.30
2018-06-23T10:05:30.105Z,2.70
2018-06-23T10:07:58.971Z,2.27
2018-06-23T10:10:27.446Z,2.33
2018-06-23T10:12:55.668Z,2.25
2018-06-23T10:15:23.866Z,1.90
2018-06-23T10:17:53.576Z,2.72
2018-06-23T10:20:21.894Z,2.00
2018-06-23T10:22:50.049Z,2.27
2018-06-23T10:25:18.211Z,2.25
2018-06-23T10:27:46.425Z,2.33
2018-06-23T10:30:14.613Z,2.55
2018-06-23T10:32:42.800Z,2.10
2018-06-23T10:35:11.068Z,2.33
2018-06-23T10:37:39.444Z,2.08
2018-06-23T10:40:07.683Z,2.40
2018-06-23T10:42:36.030Z,2.50
2018-06-23T10:45:04.271Z,2.47
2018-06-23T10:47:32.652Z,2.42
2018-06-23T10:50:00.722Z,1.92
2018-06-23T10:52:29.322Z,2.02
2018-06-23T10:54:57.715Z,2.37
2018-06-23T10:57:26.250Z,2.58
2018-06-23T10:59:54.473Z,2.37
2018-06-23T11:02:22.766Z,2.72
2018-06-23T11:04:51.027Z,2.25
2018-06-23T11:07:19.230Z,2.40
2018-06-23T11:09:47.464Z,2.00
2018-06-23T11:12:15.739Z,2.00
2018-06-23T11:14:43.931Z,2.00
2018-06-23T11:17:12.126Z,1.75
2018-06-23T11:19:40.346Z,2.00
2018-06-23T11:22:08.568Z,1.87
2018-06-23T11:24:36.923Z,1.87
2018-06-23T11:27:05.090Z,2.02
2018-06-23T11:29:33.290Z,1.92
2018-06-23T11:32:01.504Z,2.00
2018-06-23T11:34:29.741Z,3.42
2018-06-23T11:36:58.058Z,3.77
2018-06-23T11:39:26.213Z,4.17
2018-06-23T11:41:54.434Z,2.85
2018-06-23T11:44:22.634Z,2.25
2018-06-23T11:46:50.846Z,3.22
2018-06-23T11:49:19.029Z,2.52
2018-06-23T11:51:47.257Z,3.42
2018-06-23T11:54:15.571Z,6.12
2018-06-23T11:56:43.845Z,3.33
2018-06-23T11:59:12.046Z,2.15
2018-06-23T12:01:40.222Z,2.30
2018-06-23T12:04:08.437Z,2.08
2018-06-23T12:06:36.735Z,2.75
2018-06-23T12:09:07.408Z,3.02
2018-06-23T12:11:35.625Z,2.52
2018-06-23T12:14:04.030Z,2.62
2018-06-23T12:16:33.016Z,2.00
2018-06-23T12:19:01.206Z,2.17
2018-06-23T12:21:29.525Z,2.00
2018-06-23T12:23:57.728Z,2.47
2018-06-23T12:26:25.924Z,2.72
2018-06-23T12:28:54.125Z,2.20
2018-06-23T12:31:22.326Z,2.40
2018-06-23T12:33:50.485Z,3.80
2018-06-23T12:36:18.657Z,2.25
2018-06-23T12:38:46.848Z,2.77
2018-06-23T12:41:15.106Z,2.33
2018-06-23T12:43:43.300Z,2.80
2018-06-23T12:46:11.563Z,1.98
2018-06-23T12:48:39.749Z,2.55
2018-06-23T12:51:08.026Z,1.92
2018-06-23T12:53:36.266Z,2.10
2018-06-23T12:56:04.462Z,2.42
2018-06-23T12:58:32.661Z,2.40
2018-06-23T13:01:00.829Z,1.72
2018-06-23T13:03:28.989Z,2.08
2018-06-23T13:05:57.178Z,2.50
2018-06-23T13:08:25.702Z,2.05
2018-06-23T13:10:53.930Z,2.30
2018-06-23T13:13:22.136Z,1.82
2018-06-23T13:15:50.297Z,2.40
2018-06-23T13:18:18.489Z,2.45
2018-06-23T13:20:46.643Z,1.92
2018-06-23T13:23:14.846Z,1.62
2018-06-23T13:25:43.077Z,2.22
2018-06-23T13:28:12.154Z,1.80
2018-06-23T13:30:40.365Z,1.90
2018-06-23T13:33:08.590Z,2.25
2018-06-23T13:35:36.938Z,2.27
2018-06-23T13:38:05.110Z,2.12
2018-06-23T13:40:33.320Z,1.80
2018-06-23T13:43:01.594Z,2.05
2018-06-23T13:45:30.177Z,1.65
2018-06-23T13:47:58.430Z,1.62
2018-06-23T13:50:26.576Z,1.75
2018-06-23T13:52:54.758Z,1.45
2018-06-23T13:55:22.950Z,1.20
2018-06-23T13:57:51.185Z,2.33
2018-06-23T14:00:19.341Z,1.47
2018-06-23T14:02:47.570Z,0.95
2018-06-23T14:05:15.757Z,1.27
2018-06-23T14:07:43.962Z,1.52
2018-06-23T14:10:12.157Z,1.47
2018-06-23T14:12:40.330Z,1.05
2018-06-23T14:15:08.592Z,1.77
2018-06-23T14:17:36.821Z,1.42
2018-06-23T14:20:05.327Z,1.45
2018-06-23T14:22:33.804Z,1.47
2018-06-23T14:25:02.031Z,1.42
2018-06-23T14:27:30.293Z,1.50
2018-06-23T14:29:58.538Z,1.57
2018-06-23T14:32:26.725Z,1.50
2018-06-23T14:34:54.891Z,1.37
2018-06-23T14:37:23.027Z,1.40
2018-06-23T14:39:51.156Z,1.20
2018-06-23T14:42:19.308Z,1.50
2018-06-23T14:44:47.450Z,1.20
2018-06-23T14:47:16.226Z,1.30
2018-06-23T14:49:44.461Z,1.40
2018-06-23T14:52:12.654Z,1.32
2018-06-23T14:54:40.849Z,1.50
2018-06-23T14:57:09.002Z,1.52
2018-06-23T14:59:37.218Z,1.20
2018-06-23T15:02:05.393Z,1.50
2018-06-23T15:04:33.538Z,1.22
2018-06-23T15:07:01.699Z,1.30
2018-06-23T15:09:35.335Z,1.57
2018-06-23T15:12:09.032Z,1.30
2018-06-23T15:14:37.154Z,1.87
2018-06-23T15:17:05.375Z,3.42
2018-06-23T15:19:33.550Z,1.80
2018-06-23T15:22:01.711Z,1.70
2018-06-23T15:24:29.876Z,1.42
2018-06-23T15:26:58.050Z,1.50
2018-06-23T15:29:26.178Z,1.05
2018-06-23T15:31:54.313Z,1.00
2018-06-23T15:34:22.465Z,1.60
2018-06-23T15:36:50.609Z,1.62
2018-06-23T15:39:18.780Z,1.65
2018-06-23T15:41:46.921Z,1.72
2018-06-23T15:44:15.062Z,1.80
2018-06-23T15:46:43.226Z,1.70
2018-06-23T15:49:11.378Z,1.70
2018-06-23T15:51:39.765Z,1.77
2018-06-23T15:54:08.094Z,1.98
2018-06-23T15:56:36.289Z,1.70
2018-06-23T15:59:04.574Z,1.72
2018-06-23T16:01:32.744Z,1.50
2018-06-23T16:04:00.878Z,1.72
2018-06-23T16:06:29.054Z,2.05
2018-06-23T16:08:57.579Z,1.92
2018-06-23T16:11:25.814Z,1.62
2018-06-23T16:13:53.988Z,2.00
2018-06-23T16:16:22.186Z,1.90
2018-06-23T16:18:50.357Z,1.70
2018-06-23T16:21:18.594Z,2.10
2018-06-23T16:23:46.770Z,2.05
2018-06-23T16:26:14.954Z,1.85
2018-06-23T16:28:43.097Z,2.17
2018-06-23T16:31:11.293Z,1.40
2018-06-23T16:33:39.659Z,1.70
2018-06-23T16:36:08.023Z,1.40
2018-06-23T16:38:36.183Z,1.47
2018-06-23T16:41:04.373Z,1.40
2018-06-23T16:43:32.566Z,1.40
2018-06-23T16:46:00.770Z,1.55
2018-06-23T16:48:28.938Z,2.25
2018-06-23T16:50:58.574Z,2.20
2018-06-23T16:53:26.749Z,2.33
2018-06-23T16:55:54.957Z,1.80
2018-06-23T16:58:23.110Z,1.87
2018-06-23T17:00:51.285Z,2.20
2018-06-23T17:03:19.455Z,2.22
2018-06-23T17:05:47.674Z,2.08
2018-06-23T17:08:15.830Z,1.60
2018-06-23T17:10:44.000Z,1.77
2018-06-23T17:13:12.222Z,1.70
2018-06-23T17:15:40.426Z,1.65
2018-06-23T17:18:08.725Z,1.95
2018-06-23T17:20:36.926Z,1.60
2018-06-23T17:23:05.236Z,1.20
2018-06-23T17:25:33.495Z,1.90
2018-06-23T17:28:01.685Z,1.40
2018-06-23T17:30:29.862Z,1.50
2018-06-23T17:32:58.002Z,2.30
2018-06-23T17:35:26.187Z,2.72
2018-06-23T17:37:54.320Z,1.70
2018-06-23T17:40:22.485Z,1.67
2018-06-23T17:42:50.650Z,1.67
2018-06-23T17:45:18.830Z,1.70
2018-06-23T17:47:47.029Z,1.90
2018-06-23T17:50:15.207Z,1.90
2018-06-23T17:52:43.381Z,1.80
2018-06-23T17:55:11.535Z,3.25
2018-06-23T17:57:39.858Z,3.52
2018-06-23T18:00:08.434Z,2.05
2018-06-23T18:02:36.726Z,2.08
2018-06-23T18:05:05.154Z,2.12
2018-06-23T18:07:33.993Z,2.30
2018-06-23T18:10:02.322Z,2.25
2018-06-23T18:12:30.488Z,2.20
2018-06-23T18:14:58.693Z,1.50
2018-06-23T18:17:26.818Z,2.10
2018-06-23T18:19:54.969Z,2.52
2018-06-23T18:22:23.141Z,2.87
2018-06-23T18:24:51.294Z,2.15
2018-06-23T18:27:19.454Z,2.30
2018-06-23T18:29:47.587Z,2.62
2018-06-23T18:32:15.787Z,3.15
2018-06-23T18:34:43.954Z,2.20
2018-06-23T18:37:12.127Z,2.20
2018-06-23T18:39:40.322Z,2.20
2018-06-23T18:42:08.474Z,1.92
2018-06-23T18:44:36.678Z,2.37
2018-06-23T18:47:05.133Z,2.47
2018-06-23T18:49:33.286Z,2.05
2018-06-23T18:52:01.458Z,1.80
2018-06-23T18:54:29.657Z,2.00
2018-06-23T18:56:57.827Z,2.12
2018-06-23T18:59:26.322Z,2.00
2018-06-23T19:01:54.674Z,2.20
2018-06-23T19:04:22.842Z,2.33
2018-06-23T19:06:51.074Z,2.20
2018-06-23T19:09:20.117Z,1.60
2018-06-23T19:11:48.525Z,1.85
2018-06-23T19:14:16.746Z,1.72
2018-06-23T19:16:44.941Z,1.65
2018-06-23T19:19:13.169Z,2.33
2018-06-23T19:21:41.331Z,1.62
